createdAt,value
2018-10-02T00:00:26.285Z,3.40
2018-10-02T00:02:56.242Z,3.47
2018-10-02T00:05:25.960Z,3.10
2018-10-02T00:07:55.872Z,3.83
2018-10-02T00:10:25.296Z,3.47
2018-10-02T00:12:59.851Z,3.60
2018-10-02T00:15:29.300Z,3.33
2018-10-02T00:17:58.905Z,3.37
2018-10-02T00:20:28.340Z,3.33
2018-10-02T00:22:58.016Z,3.30
2018-10-02T00:25:27.623Z,3.33
2018-10-02T00:27:57.071Z,3.43
2018-10-02T00:30:26.492Z,3.60
2018-10-02T00:32:55.920Z,3.30
2018-10-02T00:35:25.312Z,3.37
2018-10-02T00:37:54.740Z,3.03
2018-10-02T00:40:24.469Z,3.27
2018-10-02T00:42:54.001Z,3.50
2018-10-02T00:45:23.656Z,3.37
2018-10-02T00:47:53.093Z,3.57
2018-10-02T00:50:22.523Z,3.67
2018-10-02T00:52:52.478Z,3.50
2018-10-02T00:55:22.185Z,3.73
2018-10-02T00:57:51.631Z,3.90
2018-10-02T01:00:21.196Z,3.97
2018-10-02T01:02:50.801Z,3.77
2018-10-02T01:05:20.306Z,3.83
2018-10-02T01:07:49.708Z,3.80
2018-10-02T01:10:19.722Z,3.97
2018-10-02T01:12:49.388Z,3.70
2018-10-02T01:15:18.836Z,4.10
2018-10-02T01:17:48.439Z,3.00
2018-10-02T01:20:17.940Z,3.40
2018-10-02T01:22:47.550Z,3.10
2018-10-02T01:25:17.157Z,3.10
2018-10-02T01:27:46.767Z,3.60
2018-10-02T01:30:16.372Z,3.73
2018-10-02T01:32:45.900Z,3.10
2018-10-02T01:35:15.583Z,3.40
2018-10-02T01:37:45.352Z,3.27
2018-10-02T01:40:15.003Z,3.30
2018-10-02T01:42:44.497Z,3.53
2018-10-02T01:45:14.010Z,3.20
2018-10-02T01:47:43.630Z,3.70
2018-10-02T01:50:13.224Z,3.33
2018-10-02T01:52:42.725Z,3.20
2018-10-02T01:55:12.152Z,3.20
2018-10-02T01:57:41.633Z,3.50
2018-10-02T02:00:11.241Z,3.57
2018-10-02T02:02:40.885Z,3.40
2018-10-02T02:05:10.279Z,3.27
2018-10-02T02:07:39.708Z,3.30
2018-10-02T02:10:09.182Z,3.47
2018-10-02T02:12:38.774Z,3.30
2018-10-02T02:15:08.471Z,3.30
2018-10-02T02:17:37.976Z,3.30
2018-10-02T02:20:07.485Z,3.80
2018-10-02T02:22:37.100Z,3.53
2018-10-02T02:25:06.571Z,3.80
2018-10-02T02:27:36.195Z,3.53
2018-10-02T02:30:05.802Z,3.67
2018-10-02T02:32:35.511Z,3.17
2018-10-02T02:35:04.984Z,2.87
2018-10-02T02:37:34.663Z,3.17
2018-10-02T02:40:05.567Z,3.17
2018-10-02T02:42:35.063Z,2.87
2018-10-02T02:45:04.441Z,3.10
2018-10-02T02:47:39.185Z,2.87
2018-10-02T02:50:13.820Z,2.50
2018-10-02T02:52:47.832Z,2.60
2018-10-02T02:55:17.330Z,3.00
2018-10-02T02:57:46.835Z,2.73
2018-10-02T03:00:16.349Z,2.67
2018-10-02T03:02:45.951Z,3.07
2018-10-02T03:05:15.552Z,2.63
2018-10-02T03:07:45.170Z,2.90
2018-10-02T03:10:14.769Z,2.77
2018-10-02T03:12:44.280Z,2.80
2018-10-02T03:15:13.704Z,3.07
2018-10-02T03:17:43.286Z,2.50
2018-10-02T03:20:12.883Z,2.90
2018-10-02T03:22:42.492Z,2.80
2018-10-02T03:25:12.202Z,2.50
2018-10-02T03:27:41.808Z,2.60
2018-10-02T03:30:11.367Z,2.63
2018-10-02T03:32:41.017Z,3.20
2018-10-02T03:35:10.627Z,3.10
2018-10-02T03:37:40.378Z,3.50
2018-10-02T03:40:09.944Z,2.97
2018-10-02T03:42:39.392Z,3.77
2018-10-02T03:45:09.053Z,3.93
2018-10-02T03:47:38.459Z,3.90
2018-10-02T03:50:08.060Z,3.83
2018-10-02T03:52:37.666Z,4.13
2018-10-02T03:55:07.983Z,4.20
2018-10-02T03:57:37.758Z,4.07
2018-10-02T04:00:07.510Z,4.03
2018-10-02T04:02:37.220Z,4.27
2018-10-02T04:05:06.826Z,4.80
2018-10-02T04:07:36.256Z,4.37
2018-10-02T04:10:05.936Z,4.50
2018-10-02T04:12:35.646Z,4.50
2018-10-02T04:15:05.354Z,4.53
2018-10-02T04:17:34.967Z,4.73
2018-10-02T04:20:04.574Z,4.70
2018-10-02T04:22:34.173Z,5.03
2018-10-02T04:25:03.883Z,4.80
2018-10-02T04:27:33.347Z,5.07
2018-10-02T04:30:02.891Z,4.43
2018-10-02T04:32:32.337Z,4.80
2018-10-02T04:35:01.799Z,4.60
2018-10-02T04:37:31.409Z,4.70
2018-10-02T04:40:00.907Z,4.97
2018-10-02T04:42:30.616Z,4.70
2018-10-02T04:45:00.036Z,4.80
2018-10-02T04:47:29.539Z,5.20
2018-10-02T04:49:59.030Z,5.13
2018-10-02T04:52:28.456Z,4.57
2018-10-02T04:54:57.887Z,5.30
2018-10-02T04:57:27.539Z,5.50
2018-10-02T04:59:57.047Z,5.27
2018-10-02T05:02:26.640Z,5.43
2018-10-02T05:04:56.263Z,5.30
2018-10-02T05:07:25.727Z,5.10
2018-10-02T05:09:55.143Z,4.73
2018-10-02T05:12:24.770Z,5.17
2018-10-02T05:14:54.478Z,4.67
2018-10-02T05:17:23.932Z,5.03
2018-10-02T05:19:53.486Z,5.20
2018-10-02T05:22:22.955Z,4.77
2018-10-02T05:24:52.599Z,4.90
2018-10-02T05:27:22.185Z,4.60
2018-10-02T05:29:51.520Z,4.80
2018-10-02T05:32:21.028Z,4.93
2018-10-02T05:34:50.744Z,5.67
2018-10-02T05:37:20.530Z,5.67
2018-10-02T05:39:50.108Z,5.90
2018-10-02T05:42:19.860Z,5.20
2018-10-02T05:44:50.329Z,6.00
2018-10-02T05:47:20.692Z,5.70
2018-10-02T05:49:50.869Z,6.10
2018-10-02T05:52:21.390Z,6.20
2018-10-02T05:54:51.156Z,6.60
2018-10-02T05:57:20.726Z,6.63
2018-10-02T05:59:50.264Z,7.50
2018-10-02T06:02:22.292Z,7.50
2018-10-02T06:04:51.839Z,7.40
2018-10-02T06:07:21.541Z,7.80
2018-10-02T06:09:51.092Z,7.93
2018-10-02T06:12:21.041Z,8.37
2018-10-02T06:14:50.673Z,8.17
2018-10-02T06:17:20.292Z,8.90
2018-10-02T06:19:49.780Z,8.97
2018-10-02T06:22:19.208Z,8.97
2018-10-02T06:24:48.884Z,8.93
2018-10-02T06:27:18.528Z,9.70
2018-10-02T06:29:52.435Z,9.20
2018-10-02T06:41:29.148Z,9.97
2018-10-02T06:43:58.741Z,11.03
2018-10-02T06:46:28.454Z,10.90
2018-10-02T06:48:58.271Z,10.80
2018-10-02T06:51:28.871Z,10.77
2018-10-02T06:53:58.711Z,11.17
2018-10-02T06:56:28.360Z,11.33
2018-10-02T06:58:58.017Z,11.60
2018-10-02T07:01:27.501Z,10.53
2018-10-02T07:03:57.128Z,10.90
2018-10-02T07:06:26.688Z,11.30
2018-10-02T07:08:56.506Z,10.90
2018-10-02T07:11:26.264Z,11.23
2018-10-02T07:13:55.870Z,10.33
2018-10-02T07:16:25.574Z,11.27
2018-10-02T07:18:55.044Z,11.23
2018-10-02T07:21:24.784Z,10.63
2018-10-02T07:23:54.392Z,10.67
2018-10-02T07:26:24.019Z,10.80
2018-10-02T07:28:53.706Z,11.00
2018-10-02T07:31:23.239Z,11.00
2018-10-02T07:33:52.918Z,10.60
2018-10-02T07:36:22.529Z,10.80
2018-10-02T07:38:54.551Z,10.47
2018-10-02T07:41:24.419Z,11.00
2018-10-02T07:43:53.992Z,10.13
2018-10-02T07:46:24.231Z,10.30
2018-10-02T07:48:56.600Z,10.27
2018-10-02T07:51:26.212Z,10.37
2018-10-02T07:53:55.775Z,11.00
2018-10-02T07:56:25.397Z,9.63
2018-10-02T07:58:55.025Z,10.77
2018-10-02T08:01:24.734Z,10.67
2018-10-02T08:03:54.204Z,10.13
2018-10-02T08:06:23.845Z,11.73
2018-10-02T08:08:53.397Z,11.37
2018-10-02T08:11:22.960Z,12.27
2018-10-02T08:13:52.565Z,11.50
2018-10-02T08:16:22.118Z,12.13
2018-10-02T08:18:51.576Z,12.17
2018-10-02T08:21:21.388Z,12.87
2018-10-02T08:23:50.997Z,12.70
2018-10-02T08:26:20.487Z,12.00
2018-10-02T08:28:50.155Z,11.63
2018-10-02T08:31:19.710Z,12.40
2018-10-02T08:33:49.323Z,12.43
2018-10-02T08:36:19.034Z,13.00
2018-10-02T08:38:48.538Z,12.53
2018-10-02T08:41:17.998Z,13.90
2018-10-02T08:43:47.627Z,12.43
2018-10-02T08:46:17.155Z,11.70
2018-10-02T08:48:46.857Z,10.90
2018-10-02T08:51:16.559Z,11.77
2018-10-02T08:53:46.134Z,8.37
2018-10-02T08:56:15.777Z,8.77
2018-10-02T08:58:45.299Z,9.13
2018-10-02T09:01:14.873Z,8.80
2018-10-02T09:03:44.491Z,9.77
2018-10-02T09:06:14.031Z,11.43
2018-10-02T09:08:43.804Z,10.40
2018-10-02T09:11:13.216Z,11.07
2018-10-02T09:13:42.965Z,10.00
2018-10-02T09:16:12.761Z,9.37
2018-10-02T09:18:42.259Z,9.33
2018-10-02T09:21:11.942Z,8.50
2018-10-02T09:23:41.575Z,8.07
2018-10-02T09:26:11.259Z,7.87
2018-10-02T09:28:40.872Z,7.60
2018-10-02T09:33:22.437Z,8.50
2018-10-02T09:35:57.295Z,5.77
2018-10-02T09:38:32.119Z,5.73
2018-10-02T09:41:06.849Z,6.03
2018-10-02T09:43:39.976Z,6.93
2018-10-02T09:46:09.541Z,6.53
2018-10-02T09:48:39.243Z,6.13
2018-10-02T09:51:08.929Z,6.30
2018-10-02T09:53:38.371Z,5.63
2018-10-02T09:56:08.097Z,4.80
2018-10-02T09:58:37.765Z,5.33
2018-10-02T10:02:10.259Z,5.00
2018-10-02T10:04:39.966Z,4.30
2018-10-02T10:07:09.435Z,4.23
2018-10-02T10:09:39.183Z,4.30
2018-10-02T10:12:08.668Z,4.50
2018-10-02T10:14:38.393Z,3.97
2018-10-02T10:17:07.992Z,3.60
2018-10-02T10:19:37.709Z,4.23
2018-10-02T10:22:07.328Z,4.07
2018-10-02T10:24:36.742Z,3.63
2018-10-02T10:27:06.217Z,3.90
2018-10-02T10:29:35.828Z,4.20
2018-10-02T10:32:05.536Z,3.80
2018-10-02T10:34:35.017Z,3.83
2018-10-02T10:37:04.464Z,4.50
2018-10-02T10:39:34.136Z,4.00
2018-10-02T10:42:03.964Z,3.93
2018-10-02T10:44:33.526Z,4.87
2018-10-02T10:47:03.266Z,3.80
2018-10-02T10:49:32.687Z,3.90
2018-10-02T10:52:02.202Z,4.20
2018-10-02T10:54:31.620Z,4.30
2018-10-02T10:57:01.192Z,4.10
2018-10-02T10:59:30.902Z,4.10
2018-10-02T11:02:00.610Z,4.00
2018-10-02T11:04:30.021Z,4.30
2018-10-02T11:06:59.477Z,3.53
2018-10-02T11:09:29.057Z,3.97
2018-10-02T11:11:58.565Z,3.67
2018-10-02T11:14:29.020Z,3.67
2018-10-02T11:16:58.697Z,3.17
2018-10-02T11:19:28.319Z,3.77
2018-10-02T11:21:58.185Z,3.23
2018-10-02T11:24:27.786Z,3.47
2018-10-02T11:26:57.232Z,3.20
2018-10-02T11:29:27.227Z,3.13
2018-10-02T11:31:57.034Z,3.13
2018-10-02T11:34:26.760Z,3.40
2018-10-02T11:36:56.235Z,3.10
2018-10-02T11:39:25.705Z,3.77
2018-10-02T11:41:55.342Z,3.10
2018-10-02T11:44:24.974Z,3.20
2018-10-02T11:46:54.655Z,3.70
2018-10-02T11:49:24.166Z,3.40
2018-10-02T11:51:53.768Z,3.40
2018-10-02T11:54:23.374Z,3.27
2018-10-02T11:56:53.020Z,3.47
2018-10-02T11:59:23.040Z,3.57
2018-10-02T12:01:52.585Z,3.40
2018-10-02T12:04:22.124Z,3.20
2018-10-02T12:06:51.662Z,3.67
2018-10-02T12:09:21.234Z,3.27
2018-10-02T12:11:51.028Z,2.87
2018-10-02T12:14:20.788Z,3.50
2018-10-02T12:16:50.389Z,3.00
2018-10-02T12:19:19.946Z,3.23
2018-10-02T12:21:49.764Z,3.03
2018-10-02T12:24:19.296Z,3.37
2018-10-02T12:26:49.011Z,3.50
2018-10-02T12:29:18.488Z,3.37
2018-10-02T12:31:48.188Z,3.00
2018-10-02T12:34:17.622Z,2.80
2018-10-02T12:36:47.895Z,3.10
2018-10-02T12:39:17.404Z,2.70
2018-10-02T12:41:46.928Z,3.30
2018-10-02T12:44:16.328Z,2.80
2018-10-02T12:46:46.080Z,3.10
2018-10-02T12:49:17.453Z,3.70
2018-10-02T12:51:47.191Z,2.90
2018-10-02T12:54:16.899Z,2.90
2018-10-02T12:56:46.609Z,3.70
2018-10-02T12:59:16.233Z,3.00
2018-10-02T13:01:45.705Z,2.73
2018-10-02T13:04:15.293Z,3.10
2018-10-02T13:06:45.214Z,3.50
2018-10-02T13:09:14.705Z,3.47
2018-10-02T13:11:44.271Z,4.30
2018-10-02T13:14:13.817Z,2.67
2018-10-02T13:16:43.850Z,2.70
2018-10-02T13:19:13.480Z,2.57
2018-10-02T13:21:42.865Z,2.17
2018-10-02T13:24:12.331Z,1.93
2018-10-02T13:26:41.958Z,2.30
2018-10-02T13:29:11.700Z,2.47
2018-10-02T13:31:41.406Z,2.00
2018-10-02T13:34:11.015Z,3.00
2018-10-02T13:36:40.652Z,2.20
2018-10-02T13:39:10.796Z,1.77
2018-10-02T13:41:40.425Z,1.97
2018-10-02T13:44:10.158Z,2.07
2018-10-02T13:46:40.038Z,1.90
2018-10-02T13:49:09.945Z,1.90
2018-10-02T13:51:39.448Z,1.80
2018-10-02T13:54:09.100Z,1.97
2018-10-02T13:56:38.803Z,1.57
2018-10-02T13:59:08.411Z,1.90
2018-10-02T14:01:38.120Z,1.60
2018-10-02T14:04:09.428Z,1.70
2018-10-02T14:06:39.692Z,1.73
2018-10-02T14:09:09.955Z,1.50
2018-10-02T14:11:39.827Z,1.63
2018-10-02T14:14:09.537Z,1.70
2018-10-02T14:16:39.445Z,1.80
2018-10-02T14:19:09.110Z,2.30
2018-10-02T14:21:38.609Z,2.40
2018-10-02T14:24:08.072Z,2.23
2018-10-02T14:26:37.977Z,1.80
2018-10-02T14:29:08.074Z,1.53
2018-10-02T14:31:37.685Z,1.63
2018-10-02T14:34:07.081Z,4.43
2018-10-02T14:36:36.819Z,1.53
2018-10-02T14:39:08.040Z,1.53
2018-10-02T14:41:37.541Z,1.70
2018-10-02T14:44:07.181Z,1.40
2018-10-02T14:46:36.780Z,1.60
2018-10-02T14:49:06.876Z,2.20
2018-10-02T14:51:36.436Z,1.30
2018-10-02T14:54:06.104Z,1.60
2018-10-02T14:56:35.611Z,1.50
2018-10-02T14:59:05.371Z,1.50
2018-10-02T15:01:34.881Z,1.40
2018-10-02T15:04:04.429Z,1.33
2018-10-02T15:06:34.067Z,1.80
2018-10-02T15:09:04.459Z,1.70
2018-10-02T15:11:33.902Z,1.50
2018-10-02T15:14:03.569Z,1.50
2018-10-02T15:16:33.011Z,1.33
2018-10-02T15:19:02.579Z,1.13
2018-10-02T15:21:32.019Z,1.47
2018-10-02T15:24:03.416Z,1.50
2018-10-02T15:26:32.937Z,1.30
2018-10-02T15:29:02.540Z,1.27
2018-10-02T15:31:32.103Z,1.30
2018-10-02T15:34:01.755Z,1.20
2018-10-02T15:36:31.668Z,1.50
2018-10-02T15:39:01.097Z,1.47
2018-10-02T15:41:30.676Z,1.30
2018-10-02T15:44:00.284Z,1.33
2018-10-02T15:46:29.889Z,1.40
2018-10-02T15:48:59.545Z,1.60
2018-10-02T15:51:31.237Z,1.57
2018-10-02T15:54:01.951Z,1.63
2018-10-02T15:56:31.493Z,1.53
2018-10-02T15:59:01.049Z,1.60
2018-10-02T16:01:30.767Z,1.47
2018-10-02T16:04:00.381Z,1.47
2018-10-02T16:06:30.126Z,1.40
2018-10-02T16:08:59.728Z,1.50
2018-10-02T16:11:29.139Z,1.50
2018-10-02T16:13:58.717Z,1.30
2018-10-02T16:16:28.193Z,1.60
2018-10-02T16:18:57.744Z,1.30
2018-10-02T16:21:27.152Z,1.57
2018-10-02T16:23:56.874Z,1.50
2018-10-02T16:26:26.302Z,1.27
2018-10-02T16:28:55.910Z,1.40
2018-10-02T16:31:25.451Z,1.30
2018-10-02T16:33:55.116Z,1.40
2018-10-02T16:36:24.887Z,1.40
2018-10-02T16:38:54.712Z,1.40
2018-10-02T16:41:24.315Z,1.60
2018-10-02T16:43:54.115Z,1.53
2018-10-02T16:46:23.621Z,1.60
2018-10-02T16:48:53.124Z,1.77
2018-10-02T16:51:22.777Z,1.80
2018-10-02T16:53:52.241Z,1.90
2018-10-02T16:56:21.945Z,1.87
2018-10-02T16:58:51.755Z,1.90
2018-10-02T17:01:21.362Z,1.90
2018-10-02T17:03:50.905Z,2.20
2018-10-02T17:06:20.344Z,2.10
2018-10-02T17:08:49.826Z,2.53
2018-10-02T17:11:19.277Z,2.70
2018-10-02T17:13:48.893Z,2.60
2018-10-02T17:16:18.591Z,6.67
2018-10-02T17:18:48.145Z,5.67
2018-10-02T17:21:17.806Z,2.90
2018-10-02T17:23:47.513Z,3.40
2018-10-02T17:26:16.981Z,3.70
2018-10-02T17:28:46.635Z,2.90
2018-10-02T17:31:16.437Z,5.97
2018-10-02T17:33:46.319Z,3.90
2018-10-02T17:36:15.854Z,3.40
2018-10-02T17:38:45.460Z,3.43
2018-10-02T17:41:15.168Z,3.00
2018-10-02T17:43:44.879Z,2.87
2018-10-02T17:46:14.588Z,4.53
2018-10-02T17:48:44.197Z,3.50
2018-10-02T17:51:13.690Z,4.07
2018-10-02T17:53:43.203Z,3.80
2018-10-02T17:56:12.814Z,3.20
2018-10-02T17:58:42.548Z,3.03
2018-10-02T18:01:12.127Z,3.47
2018-10-02T18:03:41.732Z,3.50
2018-10-02T18:06:11.350Z,3.40
2018-10-02T18:08:40.896Z,3.67
2018-10-02T18:11:10.452Z,3.87
2018-10-02T18:13:43.024Z,3.50
2018-10-02T18:16:12.489Z,3.90
2018-10-02T18:18:42.448Z,4.17
2018-10-02T18:21:11.951Z,4.33
2018-10-02T18:23:41.420Z,4.60
2018-10-02T18:26:10.880Z,4.53
2018-10-02T18:28:40.577Z,4.53
2018-10-02T18:31:10.373Z,4.53
2018-10-02T18:33:39.824Z,5.20
2018-10-02T18:36:09.308Z,5.07
2018-10-02T18:38:38.865Z,4.87
2018-10-02T18:41:08.396Z,5.40
2018-10-02T18:43:38.049Z,5.43
2018-10-02T18:46:07.680Z,5.43
2018-10-02T18:48:37.139Z,5.90
2018-10-02T18:51:06.668Z,5.50
2018-10-02T18:53:36.097Z,5.60
2018-10-02T18:56:05.970Z,5.93
2018-10-02T18:58:35.593Z,6.80
2018-10-02T19:01:05.024Z,6.03
2018-10-02T19:03:34.528Z,6.40
2018-10-02T19:06:04.184Z,6.30
2018-10-02T19:08:38.874Z,6.47
2018-10-02T19:11:13.612Z,6.40
2018-10-02T19:13:43.211Z,6.60
2018-10-02T19:16:17.849Z,6.57
2018-10-02T19:18:47.491Z,6.97
2018-10-02T19:21:17.323Z,6.97
2018-10-02T19:23:47.071Z,7.00
2018-10-02T19:26:23.089Z,7.23
2018-10-02T19:28:52.736Z,7.33
2018-10-02T19:31:27.497Z,7.30
2018-10-02T19:33:57.416Z,7.23
2018-10-02T19:36:27.076Z,7.37
2018-10-02T19:39:06.752Z,7.70
2018-10-02T19:41:36.282Z,7.80
2018-10-02T19:44:06.033Z,7.80
2018-10-02T19:46:42.006Z,8.10
2018-10-02T19:49:11.700Z,8.13
2018-10-02T19:51:46.628Z,9.17
2018-10-02T19:54:16.348Z,9.17
2018-10-02T19:56:45.978Z,8.93
2018-10-02T19:59:15.652Z,9.80
2018-10-02T20:01:45.077Z,9.90
2018-10-02T20:04:14.593Z,10.67
2018-10-02T20:06:44.091Z,9.00
2018-10-02T20:09:13.985Z,9.47
2018-10-02T20:11:43.493Z,10.53
2018-10-02T20:14:13.498Z,10.53
2018-10-02T20:16:43.935Z,11.13
2018-10-02T20:19:13.538Z,10.30
2018-10-02T20:21:43.248Z,10.27
2018-10-02T20:24:12.667Z,10.73
2018-10-02T20:26:42.351Z,10.60
2018-10-02T20:29:12.057Z,10.53
2018-10-02T20:31:46.377Z,10.80
2018-10-02T20:34:15.994Z,11.43
2018-10-02T20:36:45.992Z,11.37
2018-10-02T20:39:15.501Z,11.20
2018-10-02T20:41:45.311Z,11.60
2018-10-02T20:44:14.852Z,11.30
2018-10-02T20:46:44.535Z,10.97
2018-10-02T20:49:14.212Z,11.50
2018-10-02T20:51:44.645Z,11.80
2018-10-02T20:54:14.309Z,11.93
2018-10-02T20:56:43.873Z,11.77
2018-10-02T20:59:13.382Z,12.10
2018-10-02T21:01:43.015Z,11.90
2018-10-02T21:04:12.740Z,11.53
2018-10-02T21:06:42.234Z,11.53
2018-10-02T21:09:11.672Z,11.53
2018-10-02T21:11:41.201Z,11.80
2018-10-02T21:14:10.741Z,12.33
2018-10-02T21:16:40.579Z,11.80
2018-10-02T21:19:10.229Z,12.07
2018-10-02T21:21:39.851Z,12.97
2018-10-02T21:24:09.253Z,12.93
2018-10-02T21:26:38.824Z,12.83
2018-10-02T21:29:08.456Z,12.50
2018-10-02T21:31:38.174Z,12.70
2018-10-02T21:34:07.642Z,12.90
2018-10-02T21:36:37.373Z,12.90
2018-10-02T21:39:08.805Z,12.60
2018-10-02T21:41:38.332Z,13.97
2018-10-02T21:44:07.989Z,13.23
2018-10-02T21:46:37.849Z,13.43
2018-10-02T21:49:07.764Z,14.33
2018-10-02T21:51:37.573Z,13.33
2018-10-02T21:54:07.185Z,13.30
2018-10-02T21:56:36.889Z,13.87
2018-10-02T21:59:06.601Z,14.27
2018-10-02T22:01:36.207Z,13.93
2018-10-02T22:04:06.017Z,14.27
2018-10-02T22:06:35.591Z,13.77
2018-10-02T22:09:10.436Z,14.53
2018-10-02T22:11:40.165Z,13.97
2018-10-02T22:14:09.772Z,14.13
2018-10-02T22:16:39.353Z,14.00
2018-10-02T22:19:09.082Z,13.73
2018-10-02T22:21:44.726Z,13.33
2018-10-02T22:24:14.540Z,13.10
2018-10-02T22:26:44.149Z,13.73
2018-10-02T22:29:13.969Z,14.10
2018-10-02T22:31:43.672Z,13.50
2018-10-02T22:34:13.440Z,13.17
2018-10-02T22:36:43.087Z,11.70
2018-10-02T22:39:12.905Z,11.83
2018-10-02T22:41:42.352Z,12.13
2018-10-02T22:44:11.945Z,11.90
2018-10-02T22:46:41.513Z,11.63
2018-10-02T22:49:11.222Z,11.87
2018-10-02T22:51:41.033Z,11.97
2018-10-02T22:54:10.643Z,11.33
2018-10-02T22:56:40.249Z,11.57
2018-10-02T22:59:09.911Z,10.97
2018-10-02T23:01:39.467Z,12.07
2018-10-02T23:04:09.121Z,11.17
2018-10-02T23:06:38.781Z,10.80
2018-10-02T23:09:11.196Z,10.80
2018-10-02T23:11:40.959Z,11.10
2018-10-02T23:14:10.672Z,10.13
2018-10-02T23:16:40.274Z,10.03
2018-10-02T23:19:09.880Z,9.43
2018-10-02T23:21:39.634Z,10.50
2018-10-02T23:24:09.199Z,11.10
2018-10-02T23:26:38.736Z,10.50
2018-10-02T23:29:08.309Z,11.00
2018-10-02T23:31:38.049Z,10.73
2018-10-02T23:34:07.624Z,10.70
2018-10-02T23:36:37.228Z,10.30
2018-10-02T23:39:08.123Z,10.53
2018-10-02T23:41:37.875Z,11.43
2018-10-02T23:44:18.764Z,10.90
2018-10-02T23:46:48.282Z,11.63
2018-10-02T23:49:17.983Z,10.77
2018-10-02T23:51:47.291Z,11.87
2018-10-02T23:54:16.697Z,11.40
2018-10-02T23:56:46.096Z,11.97
2018-10-02T23:59:15.499Z,11.40
